aviador You're here:

OBBI Decoded Metar

BAHRAIN in BAHRAIN
Report Time2018-01-18 11:30:00
UTC Time2018-01-18 11:45:14
Flight Rules vfr VFR
Wind360° at 05 kt
W.Decomp.*RWY 30: 2.6 kt HW 4.2 kt RCW
Visibility9999 m
Phenomena:N/A
Clouds:N/A
Expected CloudBase > 4,800 ft AGL from Temp-Dew spread
CeilingNone
Temp21°C (ISA +6)
Dew Point09°C (46% RH)
AAT19.0°C
QNH1017 hPa
Density Alt732 ft
Elevation7 ft
Report Wrong Elevation
Raw Report
OBBI 181130Z 36005KT 290V060 CAVOK 21/09 Q1017 NOSIG=

Extra information for OBBI:More info

Metar Taf Metar & Taf Last 4 Metars F.Rules Stats Wind Profile Meteogram Temp Stats Airport Information Weather charts Add Link Nearby VenuesMetar ALERT Operation Metar Decoded Social comments